createdAt,value
2022-08-17T00:01:30.385Z,17.98
2022-08-17T00:04:11.722Z,17.96
2022-08-17T00:06:38.920Z,17.89
2022-08-17T00:09:06.096Z,17.84
2022-08-17T00:11:37.688Z,17.83
2022-08-17T00:14:07.925Z,17.80
2022-08-17T00:16:57.093Z,17.77
2022-08-17T00:19:26.383Z,17.76
2022-08-17T00:22:32.410Z,17.71
2022-08-17T00:24:43.857Z,17.70
2022-08-17T00:27:12.491Z,17.69
2022-08-17T00:29:39.682Z,17.67
2022-08-17T00:33:15.603Z,17.66
2022-08-17T00:34:54.364Z,17.60
2022-08-17T00:37:21.616Z,17.57
2022-08-17T00:39:48.715Z,17.56
2022-08-17T00:42:19.546Z,17.49
2022-08-17T00:44:46.662Z,17.48
2022-08-17T00:47:14.410Z,17.48
2022-08-17T00:49:42.005Z,17.44
2022-08-17T00:52:16.466Z,17.41
2022-08-17T00:54:47.059Z,17.38
2022-08-17T00:57:18.733Z,17.36
2022-08-17T01:00:02.343Z,17.33
2022-08-17T01:02:42.236Z,17.30
2022-08-17T01:05:25.413Z,17.27
2022-08-17T01:07:53.929Z,17.25
2022-08-17T01:11:00.003Z,17.25
2022-08-17T01:13:17.355Z,17.22
2022-08-17T01:15:51.341Z,17.22
2022-08-17T01:18:18.679Z,17.24
2022-08-17T01:20:49.659Z,17.19
2022-08-17T01:23:21.253Z,17.17
2022-08-17T01:25:51.471Z,17.12
2022-08-17T01:28:33.607Z,17.10
2022-08-17T01:31:08.087Z,17.06
2022-08-17T01:33:36.151Z,17.04
2022-08-17T01:36:06.907Z,17.02
2022-08-17T01:38:37.297Z,17.02
2022-08-17T01:41:08.981Z,17.02
2022-08-17T01:43:43.530Z,17.00
2022-08-17T01:46:15.795Z,16.94
2022-08-17T01:48:42.892Z,16.94
2022-08-17T01:51:10.101Z,16.90
2022-08-17T01:53:44.616Z,16.86
2022-08-17T01:56:14.725Z,16.84
2022-08-17T01:58:42.661Z,16.81
2022-08-17T02:01:10.976Z,16.79
2022-08-17T02:03:39.031Z,16.79
2022-08-17T02:06:27.159Z,16.81
2022-08-17T02:09:02.487Z,16.80
2022-08-17T02:11:32.385Z,16.78
2022-08-17T02:14:02.946Z,16.75
2022-08-17T02:16:36.797Z,16.77
2022-08-17T02:19:08.893Z,16.79
2022-08-17T02:21:37.129Z,16.75
2022-08-17T02:24:08.671Z,16.73
2022-08-17T02:26:35.931Z,16.73
2022-08-17T02:29:03.093Z,16.69
2022-08-17T02:31:30.245Z,16.68
2022-08-17T02:34:04.118Z,16.68
2022-08-17T02:36:33.493Z,16.66
2022-08-17T02:39:01.404Z,16.62
2022-08-17T02:41:29.792Z,16.65
2022-08-17T02:43:56.985Z,16.61
2022-08-17T02:46:24.041Z,16.60
2022-08-17T02:48:51.293Z,16.57
2022-08-17T02:51:18.484Z,16.52
2022-08-17T02:53:45.586Z,16.48
2022-08-17T02:56:12.901Z,16.45
2022-08-17T02:58:41.769Z,16.44
2022-08-17T03:01:10.413Z,16.40
2022-08-17T03:03:38.380Z,16.39
2022-08-17T03:06:07.528Z,16.37
2022-08-17T03:08:35.137Z,16.37
2022-08-17T03:11:02.314Z,16.33
2022-08-17T03:13:29.334Z,16.34
2022-08-17T03:15:58.072Z,16.30
2022-08-17T03:18:26.218Z,16.32
2022-08-17T03:20:54.665Z,16.28
2022-08-17T03:23:24.143Z,16.27
2022-08-17T03:25:54.093Z,16.23
2022-08-17T03:28:21.910Z,16.27
2022-08-17T03:30:50.719Z,16.24
2022-08-17T03:33:19.627Z,16.24
2022-08-17T03:35:47.133Z,16.26
2022-08-17T03:38:15.081Z,16.25
2022-08-17T03:40:56.909Z,16.24
2022-08-17T03:43:26.809Z,16.21
2022-08-17T03:45:54.000Z,16.20
2022-08-17T03:48:22.707Z,16.18
2022-08-17T03:50:50.080Z,16.19
2022-08-17T03:53:17.955Z,16.18
2022-08-17T03:55:45.040Z,16.13
2022-08-17T03:58:12.140Z,16.11
2022-08-17T04:00:39.844Z,16.13
2022-08-17T04:03:07.127Z,16.15
2022-08-17T04:05:37.949Z,16.17
2022-08-17T04:08:06.168Z,16.14
2022-08-17T04:10:34.535Z,16.13
2022-08-17T04:13:12.189Z,16.14
2022-08-17T04:15:39.717Z,16.17
2022-08-17T04:18:07.617Z,16.15
2022-08-17T04:20:39.516Z,16.17
2022-08-17T04:23:10.213Z,16.15
2022-08-17T04:25:44.569Z,16.14
2022-08-17T04:28:16.146Z,16.14
2022-08-17T04:30:45.308Z,16.13
2022-08-17T04:33:19.723Z,16.14
2022-08-17T04:35:50.832Z,16.17
2022-08-17T04:38:20.689Z,16.14
2022-08-17T04:40:48.515Z,16.12
2022-08-17T04:43:18.859Z,16.13
2022-08-17T04:45:55.342Z,16.19
2022-08-17T04:48:29.647Z,16.20
2022-08-17T04:51:09.837Z,16.25
2022-08-17T04:53:38.453Z,16.28
2022-08-17T04:56:06.819Z,16.31
2022-08-17T04:58:34.488Z,16.35
2022-08-17T05:01:01.779Z,16.40
2022-08-17T05:03:29.362Z,16.40
2022-08-17T05:05:56.780Z,16.40
2022-08-17T05:08:25.470Z,16.45
2022-08-17T05:10:53.097Z,16.49
2022-08-17T05:13:22.343Z,16.50
2022-08-17T05:15:53.551Z,16.51
2022-08-17T05:18:21.416Z,16.58
2022-08-17T05:20:52.670Z,16.63
2022-08-17T05:23:22.782Z,16.68
2022-08-17T05:25:54.109Z,16.77
2022-08-17T05:28:24.187Z,16.84
2022-08-17T05:30:56.076Z,16.89
2022-08-17T05:33:26.008Z,16.95
2022-08-17T05:35:55.806Z,17.02
2022-08-17T05:38:25.420Z,17.10
2022-08-17T05:40:55.059Z,17.15
2022-08-17T05:43:24.046Z,17.21
2022-08-17T05:45:58.079Z,17.22
2022-08-17T05:48:36.741Z,17.31
2022-08-17T05:51:32.709Z,17.37
2022-08-17T05:54:15.910Z,17.43
2022-08-17T05:57:09.156Z,17.53
2022-08-17T05:59:46.980Z,17.62
2022-08-17T06:02:23.190Z,17.70
2022-08-17T06:05:10.886Z,17.76
2022-08-17T06:07:48.366Z,17.86
2022-08-17T06:10:24.534Z,17.96
2022-08-17T06:13:05.684Z,18.04
2022-08-17T06:15:44.015Z,18.13
2022-08-17T06:18:14.816Z,18.20
2022-08-17T06:20:50.968Z,18.31
2022-08-17T06:23:26.967Z,18.40
2022-08-17T06:25:59.406Z,18.48
2022-08-17T06:28:34.505Z,18.60
2022-08-17T06:31:09.930Z,18.70
2022-08-17T06:33:38.108Z,18.76
2022-08-17T06:36:17.400Z,18.84
2022-08-17T06:38:55.237Z,18.93
2022-08-17T06:41:29.120Z,19.02
2022-08-17T06:44:09.147Z,19.09
2022-08-17T06:46:39.280Z,19.18
2022-08-17T06:49:19.091Z,19.30
2022-08-17T06:51:52.134Z,19.42
2022-08-17T06:54:26.064Z,19.53
2022-08-17T06:56:59.230Z,19.63
2022-08-17T06:59:36.271Z,19.70
2022-08-17T07:02:29.043Z,19.81
2022-08-17T07:05:17.492Z,19.87
2022-08-17T07:07:59.810Z,19.94
2022-08-17T07:10:29.661Z,20.02
2022-08-17T07:13:03.537Z,20.09
2022-08-17T07:15:41.288Z,20.19
2022-08-17T07:18:09.494Z,20.28
2022-08-17T07:20:42.218Z,20.38
2022-08-17T07:23:20.602Z,20.42
2022-08-17T07:25:49.536Z,20.49
2022-08-17T07:28:21.614Z,20.55
2022-08-17T07:30:54.039Z,20.65
2022-08-17T07:33:24.499Z,20.72
2022-08-17T07:35:53.497Z,20.75
2022-08-17T07:38:25.859Z,20.89
2022-08-17T07:41:02.762Z,21.02
2022-08-17T07:43:32.642Z,21.07
2022-08-17T07:46:11.605Z,21.20
2022-08-17T07:48:41.142Z,21.27
2022-08-17T07:51:17.677Z,21.29
2022-08-17T07:53:45.561Z,21.42
2022-08-17T07:56:32.517Z,21.50
2022-08-17T07:59:12.203Z,21.58
2022-08-17T08:01:47.239Z,21.71
2022-08-17T08:07:26.705Z,21.84
2022-08-17T08:10:03.755Z,21.94
2022-08-17T08:12:34.234Z,21.99
2022-08-17T08:15:11.539Z,22.09
2022-08-17T08:17:52.186Z,22.17
2022-08-17T08:20:51.485Z,22.28
2022-08-17T08:23:20.625Z,22.40
2022-08-17T08:25:59.919Z,22.52
2022-08-17T08:28:33.467Z,22.60
2022-08-17T08:31:09.123Z,22.71
2022-08-17T08:33:48.199Z,22.75
2022-08-17T08:37:12.690Z,22.83
2022-08-17T08:39:20.900Z,22.94
2022-08-17T08:41:58.510Z,23.04
2022-08-17T08:45:00.923Z,23.18
2022-08-17T08:47:49.310Z,23.28
2022-08-17T08:50:37.017Z,23.41
2022-08-17T08:53:18.546Z,23.51
2022-08-17T08:55:52.331Z,23.61
2022-08-17T08:58:31.732Z,23.69
2022-08-17T09:01:17.556Z,23.80
2022-08-17T09:04:24.638Z,23.92
2022-08-17T09:07:03.152Z,24.02
2022-08-17T09:09:42.721Z,24.09
2022-08-17T09:12:15.886Z,24.14
2022-08-17T09:14:54.735Z,24.24
2022-08-17T09:17:35.814Z,24.35
2022-08-17T09:20:11.400Z,24.45
2022-08-17T09:23:00.999Z,24.48
2022-08-17T09:25:36.832Z,24.52
2022-08-17T09:28:07.229Z,24.57
2022-08-17T09:30:44.017Z,24.60
2022-08-17T09:33:15.629Z,24.68
2022-08-17T09:35:47.363Z,24.79
2022-08-17T09:38:25.606Z,24.85
2022-08-17T09:41:02.701Z,24.93
2022-08-17T09:43:39.083Z,25.01
2022-08-17T09:46:12.013Z,25.08
2022-08-17T09:48:44.392Z,25.13
2022-08-17T09:51:18.509Z,25.21
2022-08-17T09:53:47.330Z,25.33
2022-08-17T09:56:35.137Z,25.41
2022-08-17T09:59:22.277Z,25.53
2022-08-17T10:01:59.864Z,25.63
2022-08-17T10:04:39.369Z,25.74
2022-08-17T10:07:14.726Z,25.73
2022-08-17T10:09:57.304Z,25.87
2022-08-17T10:12:33.627Z,26.02
2022-08-17T10:15:15.371Z,26.09
2022-08-17T10:18:03.927Z,26.11
2022-08-17T10:20:36.981Z,26.20
2022-08-17T10:23:09.925Z,26.37
2022-08-17T10:25:55.246Z,26.43
2022-08-17T10:28:29.718Z,26.59
2022-08-17T10:31:33.187Z,26.71
2022-08-17T10:34:05.423Z,26.86
2022-08-17T10:36:41.718Z,26.97
2022-08-17T10:39:23.159Z,26.99
2022-08-17T10:41:58.243Z,27.01
2022-08-17T10:44:38.381Z,27.10
2022-08-17T10:47:09.805Z,27.12
2022-08-17T10:49:38.642Z,27.17
2022-08-17T10:52:44.275Z,27.24
2022-08-17T10:55:16.033Z,27.29
2022-08-17T10:57:47.829Z,27.42
2022-08-17T11:00:58.351Z,27.52
2022-08-17T11:03:26.869Z,27.61
2022-08-17T11:06:07.227Z,27.63
2022-08-17T11:09:10.253Z,27.71
2022-08-17T11:12:14.434Z,27.79
2022-08-17T11:14:59.706Z,27.79
2022-08-17T11:17:59.430Z,27.90
2022-08-17T11:20:57.145Z,27.98
2022-08-17T11:23:47.079Z,28.06
2022-08-17T11:26:23.773Z,28.13
2022-08-17T11:28:53.031Z,28.24
2022-08-17T11:31:38.593Z,28.34
2022-08-17T11:34:17.245Z,28.39
2022-08-17T11:37:16.496Z,28.52
2022-08-17T11:40:10.366Z,28.56
2022-08-17T11:42:52.084Z,28.71
2022-08-17T11:45:41.931Z,28.64
2022-08-17T11:48:28.991Z,28.67
2022-08-17T11:51:05.654Z,28.74
2022-08-17T11:54:31.887Z,28.83
2022-08-17T11:56:57.422Z,28.94
2022-08-17T12:00:00.933Z,29.01
2022-08-17T12:02:47.926Z,29.16
2022-08-17T12:05:36.936Z,29.24
2022-08-17T12:08:14.417Z,29.31
2022-08-17T12:11:03.914Z,29.38
2022-08-17T12:13:39.727Z,29.39
2022-08-17T12:16:08.643Z,29.37
2022-08-17T12:18:38.117Z,29.35
2022-08-17T12:21:28.182Z,29.45
2022-08-17T12:24:01.824Z,29.49
2022-08-17T12:26:31.846Z,29.58
2022-08-17T12:29:02.257Z,29.64
2022-08-17T12:31:34.249Z,29.71
2022-08-17T12:34:03.086Z,29.78
2022-08-17T12:36:34.225Z,29.83
2022-08-17T12:39:14.582Z,29.81
2022-08-17T12:41:52.322Z,29.88
2022-08-17T12:44:22.288Z,29.94
2022-08-17T12:46:54.184Z,29.94
2022-08-17T12:49:27.196Z,29.93
2022-08-17T12:52:13.416Z,29.99
2022-08-17T12:54:53.145Z,29.96
2022-08-17T12:57:23.411Z,29.96
2022-08-17T12:59:55.118Z,30.07
2022-08-17T13:02:31.663Z,30.22
2022-08-17T13:05:01.492Z,30.28
2022-08-17T13:07:40.010Z,30.29
2022-08-17T13:10:07.380Z,30.25
2022-08-17T13:12:35.836Z,30.28
2022-08-17T13:15:03.837Z,30.34
2022-08-17T13:17:35.862Z,30.46
2022-08-17T13:20:13.361Z,30.51
2022-08-17T13:22:42.180Z,30.49
2022-08-17T13:25:16.662Z,30.53
2022-08-17T13:27:45.848Z,30.49
2022-08-17T13:30:13.332Z,30.55
2022-08-17T13:32:44.024Z,30.64
2022-08-17T13:35:40.585Z,30.71
2022-08-17T13:38:13.620Z,30.77
2022-08-17T13:40:44.866Z,30.89
2022-08-17T13:43:13.240Z,30.94
2022-08-17T13:46:07.500Z,30.93
2022-08-17T13:48:35.079Z,30.93
2022-08-17T13:51:28.749Z,30.90
2022-08-17T13:54:02.380Z,30.90
2022-08-17T13:56:49.240Z,30.93
2022-08-17T13:59:52.749Z,31.06
2022-08-17T14:02:18.862Z,31.10
2022-08-17T14:04:47.572Z,31.11
2022-08-17T14:07:30.962Z,31.11
2022-08-17T14:10:05.521Z,31.13
2022-08-17T14:12:35.060Z,31.16
2022-08-17T14:15:03.224Z,31.21
2022-08-17T14:17:34.997Z,31.29
2022-08-17T14:20:08.152Z,31.31
2022-08-17T14:22:38.592Z,31.23
2022-08-17T14:25:10.672Z,31.11
2022-08-17T14:27:51.776Z,31.07
2022-08-17T14:30:23.024Z,31.07
2022-08-17T14:32:50.599Z,31.20
2022-08-17T14:35:20.628Z,31.32
2022-08-17T14:37:48.641Z,31.39
2022-08-17T14:40:17.930Z,31.41
2022-08-17T14:42:46.022Z,31.40
2022-08-17T14:45:29.716Z,31.41
2022-08-17T14:48:02.151Z,31.41
2022-08-17T14:50:29.461Z,31.43
2022-08-17T14:52:59.172Z,31.40
2022-08-17T14:55:30.440Z,31.44
2022-08-17T14:57:57.601Z,31.48
2022-08-17T15:00:24.849Z,31.48
2022-08-17T15:02:54.930Z,31.47
2022-08-17T15:05:24.404Z,31.48
2022-08-17T15:07:51.991Z,31.44
2022-08-17T15:10:20.006Z,31.40
2022-08-17T15:12:48.796Z,31.39
2022-08-17T15:15:17.598Z,31.30
2022-08-17T15:17:45.993Z,31.22
2022-08-17T15:20:15.730Z,31.14
2022-08-17T15:22:44.034Z,31.13
2022-08-17T15:25:13.623Z,31.16
2022-08-17T15:27:40.973Z,31.12
2022-08-17T15:30:13.343Z,31.10
2022-08-17T15:32:50.709Z,31.07
2022-08-17T15:35:22.111Z,31.03
2022-08-17T15:37:57.308Z,31.01
2022-08-17T15:40:24.625Z,30.99
2022-08-17T15:42:52.029Z,30.93
2022-08-17T15:45:23.732Z,30.92
2022-08-17T15:47:51.337Z,30.86
2022-08-17T15:50:19.542Z,30.74
2022-08-17T15:52:46.897Z,30.69
2022-08-17T15:55:15.688Z,30.66
2022-08-17T15:57:43.178Z,30.60
2022-08-17T16:00:11.177Z,30.55
2022-08-17T16:03:46.345Z,30.53
2022-08-17T16:05:28.408Z,30.50
2022-08-17T16:07:59.200Z,30.47
2022-08-17T16:10:35.187Z,30.39
2022-08-17T16:13:04.035Z,30.38
2022-08-17T16:15:32.453Z,30.34
2022-08-17T16:18:00.849Z,30.31
2022-08-17T16:20:28.307Z,30.27
2022-08-17T16:22:55.923Z,30.23
2022-08-17T16:25:52.015Z,30.19
2022-08-17T16:28:14.231Z,30.14
2022-08-17T16:30:42.450Z,30.07
2022-08-17T16:33:12.033Z,30.03
2022-08-17T16:35:39.465Z,29.96
2022-08-17T16:38:07.254Z,29.90
2022-08-17T16:40:35.706Z,29.83
2022-08-17T16:43:04.182Z,29.83
2022-08-17T16:45:32.258Z,29.81
2022-08-17T16:47:59.530Z,29.74
2022-08-17T16:50:28.282Z,29.67
2022-08-17T16:53:03.236Z,29.58
2022-08-17T16:55:30.997Z,29.50
2022-08-17T16:57:58.692Z,29.42
2022-08-17T17:00:27.679Z,29.38
2022-08-17T17:02:55.534Z,29.27
2022-08-17T17:05:51.424Z,29.23
2022-08-17T17:08:29.278Z,29.12
2022-08-17T17:10:57.541Z,29.04
2022-08-17T17:13:31.899Z,29.03
2022-08-17T17:16:06.130Z,28.97
2022-08-17T17:18:41.301Z,28.97
2022-08-17T17:21:16.589Z,28.92
2022-08-17T17:23:53.736Z,28.85
2022-08-17T17:26:44.921Z,28.75
2022-08-17T17:29:26.293Z,28.69
2022-08-17T17:32:03.186Z,28.56
2022-08-17T17:34:34.136Z,28.47
2022-08-17T17:37:07.841Z,28.39
2022-08-17T17:39:40.993Z,28.27
2022-08-17T17:42:14.642Z,28.11
2022-08-17T17:44:51.397Z,28.00
2022-08-17T17:47:18.476Z,27.82
2022-08-17T17:49:47.461Z,27.68
2022-08-17T17:52:26.138Z,27.52
2022-08-17T17:55:02.885Z,27.38
2022-08-17T17:57:42.175Z,27.25
2022-08-17T18:00:14.837Z,27.09
2022-08-17T18:02:53.953Z,26.95
2022-08-17T18:05:38.208Z,26.82
2022-08-17T18:08:18.721Z,26.69
2022-08-17T18:10:51.300Z,26.65
2022-08-17T18:13:28.199Z,26.57
2022-08-17T18:15:56.973Z,26.43
2022-08-17T18:18:31.456Z,26.24
2022-08-17T18:21:01.803Z,26.09
2022-08-17T18:23:30.380Z,25.97
2022-08-17T18:25:58.125Z,25.85
2022-08-17T18:28:28.016Z,25.65
2022-08-17T18:31:11.520Z,25.54
2022-08-17T18:33:39.747Z,25.54
2022-08-17T18:36:07.658Z,25.56
2022-08-17T18:38:40.134Z,25.48
2022-08-17T18:41:21.784Z,25.36
2022-08-17T18:44:01.114Z,25.33
2022-08-17T18:46:31.465Z,25.29
2022-08-17T18:49:06.152Z,25.24
2022-08-17T18:51:40.548Z,25.14
2022-08-17T18:54:18.974Z,25.01
2022-08-17T18:56:52.088Z,24.93
2022-08-17T18:59:33.322Z,24.85
2022-08-17T19:02:23.130Z,24.78
2022-08-17T19:05:10.902Z,24.66
2022-08-17T19:07:40.139Z,24.53
2022-08-17T19:10:31.772Z,24.44
2022-08-17T19:13:04.541Z,24.37
2022-08-17T19:15:45.413Z,24.33
2022-08-17T19:18:36.838Z,24.24
2022-08-17T19:21:08.037Z,24.10
2022-08-17T19:23:40.584Z,24.01
2022-08-17T19:26:53.398Z,23.98
2022-08-17T19:29:22.569Z,23.90
2022-08-17T19:31:50.234Z,23.82
2022-08-17T19:34:33.161Z,23.75
2022-08-17T19:37:06.988Z,23.71
2022-08-17T19:39:40.067Z,23.60
2022-08-17T19:42:14.743Z,23.51
2022-08-17T19:44:55.061Z,23.48
2022-08-17T19:47:53.253Z,23.44
2022-08-17T19:50:22.719Z,23.33
2022-08-17T19:52:56.777Z,23.26
2022-08-17T19:55:30.780Z,23.18
2022-08-17T19:58:07.526Z,23.09
2022-08-17T20:00:39.988Z,22.98
2022-08-17T20:03:16.652Z,22.89
2022-08-17T20:06:11.502Z,22.88
2022-08-17T20:08:39.809Z,22.80
2022-08-17T20:11:10.894Z,22.75
2022-08-17T20:13:43.988Z,22.71
2022-08-17T20:16:12.187Z,22.69
2022-08-17T20:18:52.172Z,22.69
2022-08-17T20:21:24.729Z,22.61
2022-08-17T20:23:56.563Z,22.60
2022-08-17T20:26:27.716Z,22.60
2022-08-17T20:29:36.890Z,22.53
2022-08-17T20:32:19.317Z,22.49
2022-08-17T20:34:47.961Z,22.44
2022-08-17T20:37:31.939Z,22.40
2022-08-17T20:40:34.415Z,22.38
2022-08-17T20:43:47.591Z,22.27
2022-08-17T20:46:25.479Z,22.24
2022-08-17T20:48:57.051Z,22.18
2022-08-17T20:51:31.493Z,22.12
2022-08-17T20:54:06.899Z,22.07
2022-08-17T20:56:49.407Z,22.04
2022-08-17T20:59:57.609Z,21.97
2022-08-17T21:02:29.326Z,21.92
2022-08-17T21:05:07.237Z,21.91
2022-08-17T21:07:55.278Z,21.87
2022-08-17T21:10:36.742Z,21.81
2022-08-17T21:13:44.488Z,21.69
2022-08-17T21:16:31.189Z,21.63
2022-08-17T21:19:12.482Z,21.59
2022-08-17T21:21:49.641Z,21.47
2022-08-17T21:24:31.213Z,21.45
2022-08-17T21:27:09.286Z,21.43
2022-08-17T21:29:52.755Z,21.41
2022-08-17T21:32:29.565Z,21.37
2022-08-17T21:35:44.137Z,21.35
2022-08-17T21:38:15.190Z,21.23
2022-08-17T21:40:46.106Z,21.18
2022-08-17T21:43:22.508Z,21.18
2022-08-17T21:45:58.937Z,21.16
2022-08-17T21:48:27.351Z,21.13
2022-08-17T21:51:02.322Z,21.09
2022-08-17T21:53:40.031Z,21.06
2022-08-17T21:56:08.529Z,21.01
2022-08-17T21:58:38.540Z,20.98
2022-08-17T22:01:20.274Z,20.90
2022-08-17T22:03:55.989Z,20.87
2022-08-17T22:06:28.481Z,20.84
2022-08-17T22:09:06.127Z,20.80
2022-08-17T22:11:52.833Z,20.79
2022-08-17T22:14:20.979Z,20.75
2022-08-17T22:16:48.752Z,20.73
2022-08-17T22:19:16.008Z,20.71
2022-08-17T22:21:45.172Z,20.64
2022-08-17T22:24:19.709Z,20.60
2022-08-17T22:27:04.015Z,20.62
2022-08-17T22:29:56.922Z,20.56
2022-08-17T22:32:35.547Z,20.50
2022-08-17T22:35:31.052Z,20.39
2022-08-17T22:38:26.401Z,20.34
2022-08-17T22:40:56.358Z,20.39
2022-08-17T22:43:26.935Z,20.36
2022-08-17T22:45:58.642Z,20.33
2022-08-17T22:48:29.295Z,20.17
2022-08-17T22:51:12.617Z,20.15
2022-08-17T22:53:50.003Z,20.18
2022-08-17T22:56:25.338Z,20.22
2022-08-17T22:58:58.758Z,20.25
2022-08-17T23:01:29.308Z,20.31
2022-08-17T23:03:58.886Z,20.34
2022-08-17T23:06:26.941Z,20.39
2022-08-17T23:08:57.145Z,20.45
2022-08-17T23:11:36.923Z,20.51
2022-08-17T23:14:13.901Z,20.36
2022-08-17T23:16:41.433Z,20.33
2022-08-17T23:19:08.831Z,20.34
2022-08-17T23:21:37.275Z,20.24
2022-08-17T23:24:07.889Z,20.13
2022-08-17T23:26:36.382Z,20.07
2022-08-17T23:29:03.982Z,20.13
2022-08-17T23:31:31.326Z,20.19
2022-08-17T23:33:58.901Z,20.20
2022-08-17T23:36:26.400Z,20.14
2022-08-17T23:38:54.228Z,20.12
2022-08-17T23:41:33.638Z,20.11
2022-08-17T23:44:01.702Z,20.15
2022-08-17T23:46:29.280Z,20.16
2022-08-17T23:48:56.582Z,20.18
2022-08-17T23:51:28.292Z,20.20
2022-08-17T23:54:07.176Z,20.21
2022-08-17T23:56:37.325Z,20.16
2022-08-17T23:59:04.826Z,20.16
